AirNav   Air Wisconsin pilot careers
 
 334 users online  

WI54 Northwood Airstrip
Wonewoc, Wisconsin, USA


FAA INFORMATION EFFECTIVE 01 FEBRUARY 2018

Location

FAA Identifier: WI54
Lat/Long: 43-33-47.0000N / 090-17-06.0000W
43-33.783333N / 090-17.100000W
43.5630556 / -90.2850000
(estimated)
Elevation: 1275 ft. / 389 m
From city: 6 miles SSW of WONEWOC, WI
Time zone: UTC -6 (UTC -5 during Daylight Saving Time)
Zip code: 53924

Airport Operations

Airport use: Private use. Permission required prior to landing
Activation date: 06/2017
Control tower: no
ARTCC: CHICAGO CENTER
FSS: GREEN BAY FLIGHT SERVICE STATION
Attendance: 
Segmented circle: no

Airport Communications

WX AWOS-3PT at C35 (13 nm E): 118.95 (608-768-0023)
WX AWOS-3 at 82C (18 nm N): 123.925 (608-562-6153)

Nearby radio navigation aids

VOR radial/distance  VOR name  Freq  Var
LNRr338/17.4LONE ROCK VOR/DME112.8000E
DLLr269/22.7DELLS VORTAC117.0003E

 
NDB name  Hdg/Dist  Freq  Var  ID
MCCOY145/27.341200ECMY -.-. -- -.--

Airport Services

Runway Information

Runway 18/36

Dimensions: 1300 x 50 ft. / 396 x 15 m
Surface: turf
RUNWAY 18  RUNWAY 36
Traffic pattern: leftleft

Airport Ownership and Management from official FAA records

Ownership: Privately-owned
Owner: RICHARD THOMPSON
W10341 LUMSDEN RD
ELROY, WI 53929
Phone 608-572-5505
Manager: RICHARD THOMPSON
W10341 LUMSDEN RD
ELROY, WI 53929
Phone 608-572-5505

Instrument Procedures

There are no published instrument procedures at WI54.

Some nearby airports with instrument procedures:

C35 - Reedsburg Municipal Airport (13 nm E)
93C - Richland Airport (17 nm S)
82C - Mauston-New Lisbon Union Airport (18 nm N)
KLNR - Tri-County Regional Airport (22 nm S)
KDLL - Baraboo-Wisconsin Dells Regional Airport (22 nm E)
 
Loc | Ops | Rwys | IFR | FBO | Links
Com | Nav | Svcs | Stats | Notes

AirNav Hotels Sweepstakes
 
Aerial photo
No photo
 
Airport distance calculator
Flying to Northwood Airstrip? Find the distance to fly.

From to WI54

Sunrise and sunset
Times for 24-Feb-2018
 Local
(UTC-6)
 Zulu
(UTC)
Morning civil twilight06:1812:18
Sunrise06:4712:47
Sunset17:4223:42
Evening civil twilight18:1100:11

Current date and time
Zulu (UTC)  24-Feb-2018 10:15:50
Local (UTC-6)  24-Feb-2018 04:15:50
 
METAR
KC35 
13nm E 
240955Z AUTO 36003KT 10SM SCT016 M04/M06 A3022 RMK AO2 T10431059
K82C 
18nm N 
240955Z AUTO 00000KT 3SM BR CLR M07/M07 A3022 RMK AO2 T10661073
KVOK 
21nm N 
240956Z AUTO 00000KT 3SM BR CLR M08/M09 A3022 RMK AO2 SLP251 T10851092
KLNR 
21nm S 
240956Z AUTO 06006KT 5SM BR BKN014 M03/M05 A3022 RMK AO2 SLP237 T10281050
KDLL 
22nm E 
240955Z AUTO 00000KT 10SM CLR M04/M06 A3022 RMK AO2 T10391057
KY51 
27nm W 
240955Z AUTO 07003KT 3SM CLR M06/M06 A3019 RMK AO1 T10641064
TAF
KVOK 
21nm N 
231700Z 2317/2423 27012G18KT 9999 BKN020 QNH3007INS BECMG 2402/2403 VRB06KT 9999 SCT020 QNH3022INS BECMG 2411/2412 04009KT 9999 SCT020 BKN150 QNH3014INS BECMG 2414/2415 09012G18KT 9999 SCT020 BKN100 QNH2990INS BECMG 2420/2421 11012G18KT 9999 BKN020 OVC080 620201 QNH2980INS TEMPO 2421/2423 11015G25KT 8000 -SNPL BKN005 OVC020 620053 620802 TX03/2317Z TNM04/2412Z LAST NO AMDS AFT 2321 NEXT 2609
NOTAMs
Click for the latest NOTAMs
NOTAMs are issued by the DoD/FAA and will open in a separate window not controlled by AirNav.

 

 
 

Would you like to see your business listed on this page?

 If your business provides an interesting product or service to pilots, flight crews, aircraft, or users of the Northwood Airstrip, you should consider listing it here.  To start the listing process, click on the button below
 
Add a business
 

Other Pages about Northwood Airstrip

Update a link
 
Copyright © AirNav, LLC. All rights reserved. Privacy Policy  Contact